createdAt,value
2018-12-17T00:00:58.279Z,-980.38
2018-12-17T00:01:59.093Z,-977.16
2018-12-17T00:02:58.403Z,-977.29
2018-12-17T00:03:58.524Z,-977.13
2018-12-17T00:04:58.716Z,-976.55
2018-12-17T00:05:58.693Z,-978.74
2018-12-17T00:06:58.758Z,-976.56
2018-12-17T00:07:58.802Z,-977.35
2018-12-17T00:08:58.910Z,-978.25
2018-12-17T00:09:58.972Z,-975.71
2018-12-17T00:10:59.041Z,-978.40
2018-12-17T00:11:59.077Z,-975.70
2018-12-17T00:12:59.274Z,-990.53
2018-12-17T00:13:59.245Z,-983.71
2018-12-17T00:14:59.287Z,-978.00
2018-12-17T00:15:59.383Z,-976.87
2018-12-17T00:16:59.437Z,-980.51
2018-12-17T00:17:59.493Z,-976.46
2018-12-17T00:18:59.610Z,-980.42
2018-12-17T00:19:59.662Z,-978.71
2018-12-17T00:20:59.845Z,-982.76
2018-12-17T00:21:59.802Z,-983.00
2018-12-17T00:22:59.862Z,-978.84
2018-12-17T00:23:59.935Z,-977.62
2018-12-17T00:24:59.996Z,-980.12
2018-12-17T00:26:00.107Z,-978.93
2018-12-17T00:27:00.177Z,-979.62
2018-12-17T00:28:00.231Z,-979.91
2018-12-17T00:29:00.370Z,-980.15
2018-12-17T00:30:00.330Z,-980.53
2018-12-17T00:31:00.442Z,-980.20
2018-12-17T00:32:00.502Z,-981.13
2018-12-17T00:33:00.567Z,-976.75
2018-12-17T00:34:00.662Z,-979.27
2018-12-17T00:35:00.722Z,-976.92
2018-12-17T00:36:00.788Z,-983.78
2018-12-17T00:37:00.879Z,-975.18
2018-12-17T00:38:01.234Z,-985.36
2018-12-17T00:39:01.013Z,-982.21
2018-12-17T00:40:01.075Z,-977.28
2018-12-17T00:41:01.137Z,-981.02
2018-12-17T00:42:01.182Z,-981.32
2018-12-17T00:43:01.275Z,-977.57
2018-12-17T00:44:01.374Z,-979.63
2018-12-17T00:45:03.110Z,-982.26
2018-12-17T00:46:01.621Z,-981.19
2018-12-17T00:47:01.552Z,-982.02
2018-12-17T00:48:01.622Z,-985.26
2018-12-17T00:49:01.705Z,-981.46
2018-12-17T00:50:01.768Z,-978.02
2018-12-17T00:51:01.849Z,-980.97
2018-12-17T00:52:01.881Z,-980.98
2018-12-17T00:53:01.978Z,-973.85
2018-12-17T00:54:02.377Z,-983.45
2018-12-17T00:55:02.117Z,-979.61
2018-12-17T00:56:02.189Z,-977.86
2018-12-17T00:57:02.227Z,-981.07
2018-12-17T00:58:02.297Z,-981.46
2018-12-17T00:59:02.397Z,-986.78
2018-12-17T01:00:02.481Z,-981.22
2018-12-17T01:01:02.538Z,-983.65
2018-12-17T01:02:02.633Z,-982.05
2018-12-17T01:03:02.626Z,-983.05
2018-12-17T01:04:02.735Z,-984.05
2018-12-17T01:05:02.813Z,-978.58
2018-12-17T01:06:02.891Z,-980.72
2018-12-17T01:07:02.943Z,-982.32
2018-12-17T01:08:03.008Z,-984.54
2018-12-17T01:09:03.095Z,-978.57
2018-12-17T01:10:03.191Z,-981.91
2018-12-17T01:11:03.230Z,-977.42
2018-12-17T01:12:03.289Z,-981.08
2018-12-17T01:13:03.359Z,-981.80
2018-12-17T01:14:03.445Z,-980.89
2018-12-17T01:15:03.491Z,-979.28
2018-12-17T01:16:03.568Z,-982.71
2018-12-17T01:17:03.652Z,-982.73
2018-12-17T01:18:03.734Z,-979.93
2018-12-17T01:19:03.886Z,-979.00
2018-12-17T01:20:03.856Z,-978.88
2018-12-17T01:21:03.925Z,-978.03
2018-12-17T01:22:04.017Z,-974.89
2018-12-17T01:23:04.099Z,-978.59
2018-12-17T01:24:04.168Z,-976.53
2018-12-17T01:25:04.222Z,-973.16
2018-12-17T01:26:04.274Z,-974.44
2018-12-17T01:27:04.467Z,-978.19
2018-12-17T01:28:04.440Z,-981.59
2018-12-17T01:29:05.119Z,-971.87
2018-12-17T01:30:04.548Z,-978.26
2018-12-17T01:31:04.623Z,-974.28
2018-12-17T01:32:04.721Z,-974.27
2018-12-17T01:33:04.784Z,-976.17
2018-12-17T01:34:04.858Z,-973.13
2018-12-17T01:35:04.970Z,-976.03
2018-12-17T01:36:04.955Z,-977.04
2018-12-17T01:37:05.077Z,-976.68
2018-12-17T01:38:05.148Z,-976.82
2018-12-17T01:39:05.213Z,-981.77
2018-12-17T01:40:05.264Z,-976.90
2018-12-17T01:41:05.332Z,-978.66
2018-12-17T01:42:05.421Z,-973.20
2018-12-17T01:43:05.531Z,-976.86
2018-12-17T01:44:05.540Z,-974.11
2018-12-17T01:45:05.601Z,-974.20
2018-12-17T01:46:05.664Z,-975.53
2018-12-17T01:47:05.752Z,-980.13
2018-12-17T01:48:05.813Z,-977.38
2018-12-17T01:49:05.884Z,-980.58
2018-12-17T01:50:05.954Z,-976.50
2018-12-17T01:51:06.044Z,-978.96
2018-12-17T01:52:06.127Z,-974.98
2018-12-17T01:53:06.159Z,-979.46
2018-12-17T01:54:06.228Z,-974.72
2018-12-17T01:55:06.313Z,-974.72
2018-12-17T01:56:06.385Z,-978.75
2018-12-17T01:57:06.471Z,-929.18
2018-12-17T01:58:06.532Z,-922.53
2018-12-17T01:59:06.605Z,-924.71
2018-12-17T02:00:06.771Z,-925.86
2018-12-17T02:01:06.747Z,-922.24
2018-12-17T02:02:06.820Z,-926.16
2018-12-17T02:03:06.892Z,-930.10
2018-12-17T02:04:06.941Z,-921.36
2018-12-17T02:05:07.006Z,-927.09
2018-12-17T02:06:07.089Z,-927.79
2018-12-17T02:07:07.183Z,-922.07
2018-12-17T02:08:07.362Z,-928.98
2018-12-17T02:09:07.298Z,-929.09
2018-12-17T02:10:07.369Z,-925.57
2018-12-17T02:11:07.454Z,-927.33
2018-12-17T02:12:07.538Z,-930.36
2018-12-17T02:13:07.599Z,-925.44
2018-12-17T02:14:07.770Z,-925.52
2018-12-17T02:15:07.706Z,-926.72
2018-12-17T02:16:07.857Z,-927.16
2018-12-17T02:17:07.871Z,-927.25
2018-12-17T02:18:07.951Z,-925.46
2018-12-17T02:19:08.001Z,-931.66
2018-12-17T02:20:08.074Z,-928.03
2018-12-17T02:21:08.125Z,-928.34
2018-12-17T02:22:08.211Z,-929.19
2018-12-17T02:23:08.299Z,-925.64
2018-12-17T02:24:08.376Z,-927.06
2018-12-17T02:25:08.411Z,-929.27
2018-12-17T02:26:08.493Z,-929.70
2018-12-17T02:27:08.570Z,-923.50
2018-12-17T02:28:08.640Z,-926.65
2018-12-17T02:29:08.726Z,-924.80
2018-12-17T02:30:08.812Z,-926.45
2018-12-17T02:31:08.898Z,-922.22
2018-12-17T02:32:09.004Z,-926.47
2018-12-17T02:33:09.104Z,-924.02
2018-12-17T02:34:09.089Z,-925.82
2018-12-17T02:35:09.179Z,-924.48
2018-12-17T02:36:09.230Z,-925.54
2018-12-17T02:37:09.315Z,-927.83
2018-12-17T02:38:09.362Z,-929.14
2018-12-17T02:39:09.438Z,-923.84
2018-12-17T02:40:09.543Z,-924.29
2018-12-17T02:41:09.758Z,-925.44
2018-12-17T02:42:09.677Z,-920.22
2018-12-17T02:43:09.711Z,-922.58
2018-12-17T02:44:09.794Z,-922.97
2018-12-17T02:45:09.913Z,-924.28
2018-12-17T02:46:09.980Z,-925.54
2018-12-17T02:47:10.040Z,-923.14
2018-12-17T02:48:10.099Z,-926.14
2018-12-17T02:49:10.251Z,-927.42
2018-12-17T02:50:10.233Z,-922.97
2018-12-17T02:51:10.300Z,-925.91
2018-12-17T02:52:10.385Z,-923.84
2018-12-17T02:53:10.434Z,-926.18
2018-12-17T02:54:10.508Z,-927.51
2018-12-17T02:55:10.579Z,-927.29
2018-12-17T02:56:10.645Z,-924.78
2018-12-17T02:57:10.772Z,-918.29
2018-12-17T02:58:10.765Z,-923.86
2018-12-17T02:59:10.861Z,-920.87
2018-12-17T03:00:10.912Z,-921.35
2018-12-17T03:01:10.966Z,-921.66
2018-12-17T03:02:11.067Z,-922.77
2018-12-17T03:03:11.115Z,-922.72
2018-12-17T03:04:11.211Z,-922.52
2018-12-17T03:05:11.332Z,-917.12
2018-12-17T03:06:11.338Z,-919.16
2018-12-17T03:07:11.422Z,-925.64
2018-12-17T03:08:11.478Z,-922.99
2018-12-17T03:09:11.544Z,-920.44
2018-12-17T03:10:11.629Z,-921.01
2018-12-17T03:11:11.706Z,-919.64
2018-12-17T03:12:11.753Z,-920.21
2018-12-17T03:13:11.835Z,-926.27
2018-12-17T03:14:12.018Z,-920.69
2018-12-17T03:15:11.996Z,-921.67
2018-12-17T03:16:12.045Z,-920.93
2018-12-17T03:17:12.115Z,-922.63
2018-12-17T03:18:12.190Z,-920.69
2018-12-17T03:19:12.255Z,-920.12
2018-12-17T03:20:12.364Z,-926.77
2018-12-17T03:21:12.386Z,-923.21
2018-12-17T03:22:12.541Z,-924.80
2018-12-17T03:23:12.533Z,-919.60
2018-12-17T03:24:12.613Z,-916.55
2018-12-17T03:25:12.702Z,-919.12
2018-12-17T03:26:12.745Z,-921.99
2018-12-17T03:27:12.814Z,-920.12
2018-12-17T03:28:12.867Z,-926.56
2018-12-17T03:29:12.956Z,-925.33
2018-12-17T03:30:13.122Z,-923.27
2018-12-17T03:31:13.082Z,-921.95
2018-12-17T03:32:13.184Z,-923.62
2018-12-17T03:33:13.234Z,-918.49
2018-12-17T03:34:13.297Z,-919.76
2018-12-17T03:35:13.400Z,-920.98
2018-12-17T03:36:13.464Z,-919.55
2018-12-17T03:37:13.528Z,-927.01
2018-12-17T03:38:13.649Z,-918.08
2018-12-17T03:39:13.628Z,-926.06
2018-12-17T03:40:13.730Z,-919.15
2018-12-17T03:41:13.832Z,-920.35
2018-12-17T03:42:13.864Z,-922.47
2018-12-17T03:43:13.959Z,-926.19
2018-12-17T03:44:14.007Z,-919.59
2018-12-17T03:45:14.080Z,-916.96
2018-12-17T03:46:14.185Z,-920.44
2018-12-17T03:47:14.318Z,-918.52
2018-12-17T03:48:14.327Z,-920.73
2018-12-17T03:49:14.383Z,-923.44
2018-12-17T03:50:14.444Z,-919.42
2018-12-17T03:51:14.520Z,-923.49
2018-12-17T03:52:14.583Z,-922.25
2018-12-17T03:53:14.670Z,-923.35
2018-12-17T03:54:14.961Z,-922.41
2018-12-17T03:55:14.929Z,-918.65
2018-12-17T03:56:14.877Z,-922.50
2018-12-17T03:57:14.965Z,-918.84
2018-12-17T03:58:15.045Z,-921.35
2018-12-17T03:59:15.093Z,-920.20
2018-12-17T04:00:15.183Z,-921.56
2018-12-17T04:01:15.221Z,-920.38
2018-12-17T04:02:15.304Z,-919.36
2018-12-17T04:03:15.516Z,-922.41
2018-12-17T04:04:15.438Z,-921.05
2018-12-17T04:05:15.526Z,-916.78
2018-12-17T04:06:15.582Z,-920.45
2018-12-17T04:07:15.660Z,-916.87
2018-12-17T04:08:15.742Z,-917.50
2018-12-17T04:09:15.791Z,-919.08
2018-12-17T04:10:15.875Z,-917.38
2018-12-17T04:11:15.963Z,-919.12
2018-12-17T04:12:15.998Z,-919.03
2018-12-17T04:13:16.079Z,-916.62
2018-12-17T04:14:16.145Z,-914.08
2018-12-17T04:15:16.232Z,-917.87
2018-12-17T04:16:16.311Z,-917.74
2018-12-17T04:17:16.359Z,-910.37
2018-12-17T04:18:16.454Z,-918.27
2018-12-17T04:19:16.515Z,-918.12
2018-12-17T04:20:16.588Z,-920.04
2018-12-17T04:21:16.677Z,-923.10
2018-12-17T04:22:16.716Z,-914.26
2018-12-17T04:23:16.814Z,-908.90
2018-12-17T04:24:16.849Z,-913.06
2018-12-17T04:25:16.941Z,-922.69
2018-12-17T04:26:17.027Z,-918.86
2018-12-17T04:27:17.078Z,-919.91
2018-12-17T04:28:17.270Z,-910.50
2018-12-17T04:29:17.192Z,-919.00
2018-12-17T04:30:17.278Z,-914.93
2018-12-17T04:31:17.364Z,-918.50
2018-12-17T04:32:17.427Z,-916.15
2018-12-17T04:33:17.506Z,-914.20
2018-12-17T04:34:17.558Z,-917.78
2018-12-17T04:35:17.612Z,-912.61
2018-12-17T04:36:17.809Z,-918.46
2018-12-17T04:37:17.799Z,-917.61
2018-12-17T04:38:17.875Z,-923.56
2018-12-17T04:39:17.931Z,-916.07
2018-12-17T04:40:17.990Z,-910.78
2018-12-17T04:41:18.091Z,-896.26
2018-12-17T04:42:18.156Z,-889.50
2018-12-17T04:43:18.223Z,-908.18
2018-12-17T04:44:18.344Z,-912.55
2018-12-17T04:45:18.325Z,-911.64
2018-12-17T04:46:18.429Z,-906.03
2018-12-17T04:47:18.510Z,-913.30
2018-12-17T04:48:18.567Z,-913.46
2018-12-17T04:49:18.619Z,-915.85
2018-12-17T04:50:18.690Z,-912.79
2018-12-17T04:51:18.802Z,-912.40
2018-12-17T04:52:18.867Z,-914.66
2018-12-17T04:53:18.897Z,-919.31
2018-12-17T04:54:18.956Z,-911.93
2018-12-17T04:55:19.026Z,-915.89
2018-12-17T04:56:19.121Z,-917.86
2018-12-17T04:57:19.159Z,-919.22
2018-12-17T04:58:19.237Z,-914.82
2018-12-17T04:59:19.311Z,-906.51
2018-12-17T05:00:19.413Z,-896.81
2018-12-17T05:01:19.516Z,-910.24
2018-12-17T05:02:19.562Z,-912.63
2018-12-17T05:03:19.598Z,-910.45
2018-12-17T05:04:19.662Z,-914.59
2018-12-17T05:05:19.738Z,-913.05
2018-12-17T05:06:19.838Z,-915.97
2018-12-17T05:07:19.871Z,-917.35
2018-12-17T05:08:19.964Z,-915.47
2018-12-17T05:09:20.095Z,-911.35
2018-12-17T05:10:20.078Z,-913.51
2018-12-17T05:11:20.199Z,-909.91
2018-12-17T05:12:20.217Z,-914.27
2018-12-17T05:13:20.307Z,-916.38
2018-12-17T05:14:20.337Z,-911.62
2018-12-17T05:15:20.423Z,-915.71
2018-12-17T05:16:20.535Z,-908.97
2018-12-17T05:17:20.760Z,-912.87
2018-12-17T05:18:20.635Z,-915.65
2018-12-17T05:19:20.709Z,-912.06
2018-12-17T05:20:20.770Z,-909.79
2018-12-17T05:21:20.906Z,-912.93
2018-12-17T05:22:20.920Z,-907.55
2018-12-17T05:23:21.006Z,-911.20
2018-12-17T05:24:21.043Z,-904.78
2018-12-17T05:25:21.210Z,-904.43
2018-12-17T05:26:21.220Z,-903.51
2018-12-17T05:27:21.321Z,-913.11
2018-12-17T05:28:21.357Z,-906.87
2018-12-17T05:29:21.612Z,-913.39
2018-12-17T05:30:21.466Z,-908.72
2018-12-17T05:31:21.566Z,-908.55
2018-12-17T05:32:21.888Z,-911.42
2018-12-17T05:33:21.734Z,-909.51
2018-12-17T05:34:21.754Z,-916.53
2018-12-17T05:35:21.826Z,-911.07
2018-12-17T05:36:21.914Z,-907.34
2018-12-17T05:37:21.977Z,-902.16
2018-12-17T05:38:22.057Z,-908.26
2018-12-17T05:39:22.142Z,-910.18
2018-12-17T05:40:22.213Z,-911.75
2018-12-17T05:41:22.331Z,-910.98
2018-12-17T05:42:22.403Z,-915.65
2018-12-17T05:43:22.434Z,-915.36
2018-12-17T05:44:22.516Z,-914.50
2018-12-17T05:45:22.589Z,-906.81
2018-12-17T05:46:22.671Z,-901.55
2018-12-17T05:47:22.702Z,-900.45
2018-12-17T05:48:22.791Z,-910.23
2018-12-17T05:49:22.890Z,-907.83
2018-12-17T05:50:23.048Z,-908.81
2018-12-17T05:51:23.042Z,-908.70
2018-12-17T05:52:23.058Z,-907.20
2018-12-17T05:53:23.143Z,-912.25
2018-12-17T05:54:23.228Z,-907.30
2018-12-17T05:55:23.284Z,-910.79
2018-12-17T05:56:23.390Z,-903.18
2018-12-17T05:57:23.437Z,-887.70
2018-12-17T05:58:23.603Z,-901.60
2018-12-17T05:59:28.558Z,-908.48
2018-12-17T06:00:24.628Z,-909.72
2018-12-17T06:01:23.733Z,-905.50
2018-12-17T06:02:23.771Z,-908.36
2018-12-17T06:03:23.839Z,-907.45
2018-12-17T06:04:23.913Z,-909.16
2018-12-17T06:05:23.979Z,-914.24
2018-12-17T06:06:24.138Z,-906.57
2018-12-17T06:07:24.092Z,-909.07
2018-12-17T06:08:24.177Z,-907.04
2018-12-17T06:09:24.249Z,-904.51
2018-12-17T06:10:24.300Z,-906.31
2018-12-17T06:11:24.420Z,-909.63
2018-12-17T06:12:24.452Z,-906.37
2018-12-17T06:13:24.514Z,-906.79
2018-12-17T06:14:24.644Z,-903.48
2018-12-17T06:15:24.695Z,-906.12
2018-12-17T06:16:24.802Z,-893.71
2018-12-17T06:17:24.841Z,-902.65
2018-12-17T06:18:24.912Z,-902.43
2018-12-17T06:19:25.003Z,-908.50
2018-12-17T06:20:25.049Z,-906.99
2018-12-17T06:21:25.131Z,-902.14
2018-12-17T06:22:25.221Z,-909.20
2018-12-17T06:23:25.383Z,-907.93
2018-12-17T06:24:25.366Z,-902.01
2018-12-17T06:25:25.401Z,-906.27
2018-12-17T06:26:25.493Z,-905.22
2018-12-17T06:27:25.557Z,-897.93
2018-12-17T06:28:25.634Z,-911.24
2018-12-17T06:29:25.712Z,-907.45
2018-12-17T06:30:25.761Z,-908.61
2018-12-17T06:31:25.998Z,-908.43
2018-12-17T06:32:25.932Z,-899.80
2018-12-17T06:33:26.016Z,-895.66
2018-12-17T06:34:26.110Z,-901.76
2018-12-17T06:35:26.156Z,-904.05
2018-12-17T06:36:26.200Z,-907.40
2018-12-17T06:37:26.276Z,-891.69
2018-12-17T06:38:26.362Z,-890.99
2018-12-17T06:39:26.534Z,-898.87
2018-12-17T06:40:26.488Z,-904.51
2018-12-17T06:41:26.559Z,-910.66
2018-12-17T06:42:26.614Z,-906.10
2018-12-17T06:43:26.708Z,-911.44
2018-12-17T06:44:26.786Z,-906.75
2018-12-17T06:45:26.840Z,-909.09
2018-12-17T06:46:26.955Z,-913.50
2018-12-17T06:47:27.023Z,-904.62
2018-12-17T06:48:27.042Z,-905.09
2018-12-17T06:49:27.137Z,-904.29
2018-12-17T06:50:27.188Z,-902.99
2018-12-17T06:51:27.259Z,-907.10
2018-12-17T06:52:27.352Z,-907.31
2018-12-17T06:53:27.434Z,-913.05
2018-12-17T06:54:27.490Z,-903.70
2018-12-17T06:55:27.571Z,-908.55
2018-12-17T06:56:27.720Z,-906.07
2018-12-17T06:57:27.735Z,-909.39
2018-12-17T06:58:27.772Z,-905.95
2018-12-17T06:59:27.836Z,-905.40
2018-12-17T07:00:27.903Z,-907.12
2018-12-17T07:01:28.188Z,-900.67
2018-12-17T07:02:28.088Z,-900.48
2018-12-17T07:03:28.152Z,-905.37
2018-12-17T07:04:28.326Z,-910.01
2018-12-17T07:05:28.279Z,-909.97
2018-12-17T07:06:28.354Z,-905.36
2018-12-17T07:07:28.434Z,-906.82
2018-12-17T07:08:28.498Z,-911.81
2018-12-17T07:09:28.798Z,-909.84
2018-12-17T07:10:28.603Z,-909.08
2018-12-17T07:11:28.680Z,-908.85
2018-12-17T07:12:28.877Z,-776.51
2018-12-17T07:13:28.875Z,-889.69
2018-12-17T07:14:28.916Z,-887.43
2018-12-17T07:15:28.954Z,-888.42
2018-12-17T07:16:29.040Z,-888.87
2018-12-17T07:17:29.140Z,-858.21
2018-12-17T07:18:29.223Z,-879.94
2018-12-17T07:19:29.280Z,-875.57
2018-12-17T07:20:29.387Z,-860.38
2018-12-17T07:21:29.372Z,-882.77
2018-12-17T07:22:29.479Z,-902.28
2018-12-17T07:23:29.579Z,-908.73
2018-12-17T07:24:29.634Z,-909.92
2018-12-17T07:25:29.693Z,-914.02
2018-12-17T07:26:29.758Z,-910.80
2018-12-17T07:27:29.841Z,-911.69
2018-12-17T07:28:29.943Z,-906.88
2018-12-17T07:29:29.973Z,-910.01
2018-12-17T07:30:30.029Z,-910.67
2018-12-17T07:31:30.106Z,-912.48
2018-12-17T07:32:30.192Z,-909.59
2018-12-17T07:33:30.233Z,-907.46
2018-12-17T07:34:30.349Z,-907.18
2018-12-17T07:35:30.403Z,-913.44
2018-12-17T07:36:30.501Z,-907.11
2018-12-17T07:37:30.676Z,-898.80
2018-12-17T07:38:31.111Z,-894.85
2018-12-17T07:39:30.695Z,-904.50
2018-12-17T07:40:30.764Z,-905.46
2018-12-17T07:41:30.848Z,-905.19
2018-12-17T07:42:30.922Z,-905.36
2018-12-17T07:43:30.974Z,-909.85
2018-12-17T07:44:31.046Z,-905.24
2018-12-17T07:45:31.244Z,-909.58
2018-12-17T07:46:31.197Z,-911.21
2018-12-17T07:47:31.275Z,-907.70
2018-12-17T07:48:31.327Z,-908.44
2018-12-17T07:49:31.396Z,-904.85
2018-12-17T07:50:31.496Z,-899.32
2018-12-17T07:51:31.580Z,-905.60
2018-12-17T07:52:31.675Z,-902.13
2018-12-17T07:53:31.760Z,-910.30
2018-12-17T07:54:31.780Z,-909.08
2018-12-17T07:55:31.867Z,-905.97
2018-12-17T07:56:31.976Z,-900.87
2018-12-17T07:57:32.040Z,-945.14
2018-12-17T07:58:32.099Z,-945.27
2018-12-17T07:59:32.172Z,-949.23
2018-12-17T08:00:32.251Z,-954.04
2018-12-17T08:01:32.380Z,-962.76
2018-12-17T08:02:32.374Z,-958.85
2018-12-17T08:03:32.457Z,-958.49
2018-12-17T08:04:32.514Z,-957.17
2018-12-17T08:05:32.590Z,-959.33
2018-12-17T08:06:32.642Z,-956.46
2018-12-17T08:07:32.711Z,-957.94
2018-12-17T08:08:35.539Z,-957.79
2018-12-17T08:09:32.893Z,-957.54
2018-12-17T08:10:32.987Z,-957.37
2018-12-17T08:11:33.000Z,-958.18
2018-12-17T08:12:33.075Z,-948.42
2018-12-17T08:13:33.140Z,-952.51
2018-12-17T08:14:33.225Z,-891.35
2018-12-17T08:15:33.297Z,-944.65
2018-12-17T08:16:33.350Z,-939.89
2018-12-17T08:17:33.464Z,-954.96
2018-12-17T08:18:33.618Z,-936.97
2018-12-17T08:19:33.625Z,-943.03
2018-12-17T08:20:33.689Z,-892.38
2018-12-17T08:21:33.759Z,-956.70
2018-12-17T08:22:33.831Z,-906.16
2018-12-17T08:23:33.867Z,-957.96
2018-12-17T08:24:33.946Z,-956.08
2018-12-17T08:25:34.035Z,-954.56
2018-12-17T08:26:34.405Z,-953.65
2018-12-17T08:27:34.179Z,-953.99
2018-12-17T08:28:34.221Z,-955.60
2018-12-17T08:29:34.305Z,-959.07
2018-12-17T08:30:34.393Z,-956.75
2018-12-17T08:31:34.448Z,-956.11
2018-12-17T08:32:34.552Z,-958.13
2018-12-17T08:33:34.588Z,-959.95
2018-12-17T08:34:34.745Z,-955.71
2018-12-17T08:35:34.733Z,-940.34
2018-12-17T08:36:34.788Z,-929.14
2018-12-17T08:37:34.889Z,-947.95
2018-12-17T08:38:34.928Z,-945.90
2018-12-17T08:39:34.993Z,-948.44
2018-12-17T08:40:35.072Z,-951.68
2018-12-17T08:41:35.140Z,-956.51
2018-12-17T08:42:35.280Z,-955.43
2018-12-17T08:43:35.263Z,-953.76
2018-12-17T08:44:35.354Z,-954.43
2018-12-17T08:45:35.408Z,-952.73
2018-12-17T08:46:35.468Z,-907.04
2018-12-17T08:47:35.578Z,-958.27
2018-12-17T08:48:35.628Z,-953.18
2018-12-17T08:49:35.699Z,-956.02
2018-12-17T08:50:35.829Z,-956.67
2018-12-17T08:51:35.907Z,-959.03
2018-12-17T08:52:35.964Z,-901.30
2018-12-17T08:53:36.026Z,-951.67
2018-12-17T08:54:36.095Z,-955.07
2018-12-17T08:55:36.193Z,-950.41
2018-12-17T08:56:36.243Z,-948.09
2018-12-17T08:57:38.077Z,-933.10
2018-12-17T08:58:36.412Z,-937.74
2018-12-17T08:59:36.599Z,-939.41
2018-12-17T09:00:36.560Z,-951.27
2018-12-17T09:01:36.595Z,-958.03
2018-12-17T09:02:36.678Z,-952.42
2018-12-17T09:03:36.763Z,-947.10
2018-12-17T09:04:36.809Z,-951.72
2018-12-17T09:05:36.908Z,-948.50
2018-12-17T09:06:36.971Z,-952.08
2018-12-17T09:07:37.161Z,-950.06
2018-12-17T09:08:37.115Z,-898.19
2018-12-17T09:09:37.171Z,-954.06
2018-12-17T09:10:37.261Z,-954.24
2018-12-17T09:11:37.306Z,-955.65
2018-12-17T09:12:37.401Z,-958.71
2018-12-17T09:13:37.455Z,-951.92
2018-12-17T09:14:37.530Z,-960.35
2018-12-17T09:15:37.702Z,-955.33
2018-12-17T09:16:37.647Z,-958.05
2018-12-17T09:17:37.744Z,-960.43
2018-12-17T09:18:37.815Z,-948.93
2018-12-17T09:19:37.851Z,-949.49
2018-12-17T09:20:37.954Z,-949.29
2018-12-17T09:21:38.002Z,-952.18
2018-12-17T09:22:38.111Z,-955.74
2018-12-17T09:23:38.436Z,-948.86
2018-12-17T09:24:38.177Z,-952.77
2018-12-17T09:25:38.277Z,-951.94
2018-12-17T09:26:38.346Z,-954.24
2018-12-17T09:27:38.417Z,-956.50
2018-12-17T09:28:38.505Z,-956.84
2018-12-17T09:29:38.555Z,-954.61
2018-12-17T09:30:41.330Z,-948.54
2018-12-17T09:31:38.703Z,-948.22
2018-12-17T09:32:38.826Z,-952.55
2018-12-17T09:33:38.854Z,-952.77
2018-12-17T09:34:38.904Z,-888.90
2018-12-17T09:35:38.997Z,-895.86
2018-12-17T09:36:39.028Z,-901.02
2018-12-17T09:37:39.113Z,-900.83
2018-12-17T09:38:39.200Z,-894.47
2018-12-17T09:39:39.337Z,-897.59
2018-12-17T09:40:39.419Z,-899.43
2018-12-17T09:41:39.369Z,-897.18
2018-12-17T09:42:39.472Z,-904.94
2018-12-17T09:43:39.550Z,-898.16
2018-12-17T09:44:39.607Z,-902.88
2018-12-17T09:45:39.698Z,-896.78
2018-12-17T09:46:39.745Z,-899.15
2018-12-17T09:47:39.800Z,-894.34
2018-12-17T09:48:39.983Z,-903.26
2018-12-17T09:49:40.044Z,-903.49
2018-12-17T09:50:40.152Z,-892.05
2018-12-17T09:51:40.202Z,-901.30
2018-12-17T09:52:40.263Z,-902.10
2018-12-17T09:53:40.375Z,-900.35
2018-12-17T09:54:40.449Z,-898.67
2018-12-17T09:55:40.558Z,-893.97
2018-12-17T09:56:40.657Z,-795.78
2018-12-17T09:57:40.659Z,-789.64
2018-12-17T09:58:40.747Z,-867.75
2018-12-17T09:59:40.822Z,-875.96
2018-12-17T10:00:40.974Z,-891.98
2018-12-17T10:01:40.984Z,-892.20
2018-12-17T10:02:41.088Z,-890.97
2018-12-17T10:03:41.886Z,-893.83
2018-12-17T10:04:41.241Z,-894.60
2018-12-17T10:05:41.340Z,-890.39
2018-12-17T10:06:41.375Z,-898.75
2018-12-17T10:07:41.461Z,-899.04
2018-12-17T10:08:41.553Z,-900.72
2018-12-17T10:09:41.604Z,-898.95
2018-12-17T10:10:41.665Z,-899.81
2018-12-17T10:11:41.776Z,-894.88
2018-12-17T10:12:41.855Z,-897.90
2018-12-17T10:13:42.044Z,-900.86
2018-12-17T10:14:41.987Z,-897.24
2018-12-17T10:15:42.095Z,-898.46
2018-12-17T10:16:42.173Z,-880.17
2018-12-17T10:17:42.248Z,-888.07
2018-12-17T10:18:42.320Z,-899.06
2018-12-17T10:19:42.377Z,-893.61
2018-12-17T10:20:42.441Z,-898.27
2018-12-17T10:21:42.685Z,-899.41
2018-12-17T10:22:42.560Z,-899.37
2018-12-17T10:23:42.656Z,-895.83
2018-12-17T10:24:42.689Z,-896.92
2018-12-17T10:25:42.785Z,-897.45
2018-12-17T10:26:43.088Z,-897.81
2018-12-17T10:27:42.945Z,-895.78
2018-12-17T10:28:43.001Z,-899.78
2018-12-17T10:29:43.326Z,-902.49
2018-12-17T10:30:43.190Z,-892.99
2018-12-17T10:31:43.305Z,-889.01
2018-12-17T10:32:43.386Z,-893.08
2018-12-17T10:33:43.461Z,-895.73
2018-12-17T10:34:43.522Z,-897.14
2018-12-17T10:35:43.594Z,-897.92
2018-12-17T10:36:43.673Z,-894.85
2018-12-17T10:37:43.800Z,-895.08
2018-12-17T10:38:43.818Z,-891.75
2018-12-17T10:39:43.888Z,-898.97
2018-12-17T10:40:43.968Z,-893.47
2018-12-17T10:41:44.043Z,-898.80
2018-12-17T10:42:44.128Z,-903.90
2018-12-17T10:43:44.226Z,-899.22
2018-12-17T10:44:44.286Z,-894.72
2018-12-17T10:45:44.385Z,-899.57
2018-12-17T10:46:44.504Z,-888.35
2018-12-17T10:47:44.514Z,-889.52
2018-12-17T10:48:44.605Z,-894.53
2018-12-17T10:49:44.670Z,-894.84
2018-12-17T10:50:44.742Z,-888.96
2018-12-17T10:51:44.845Z,-893.31
2018-12-17T10:52:44.917Z,-894.89
2018-12-17T10:53:44.992Z,-895.25
2018-12-17T10:54:45.193Z,-894.34
2018-12-17T10:55:45.150Z,-870.28
2018-12-17T10:56:45.252Z,-882.33
2018-12-17T10:57:45.284Z,-881.03
2018-12-17T10:58:45.397Z,-894.63
2018-12-17T10:59:45.477Z,-893.66
2018-12-17T11:00:45.553Z,-897.41
2018-12-17T11:01:45.660Z,-902.31
2018-12-17T11:02:45.781Z,-890.23
2018-12-17T11:03:45.784Z,-900.74
2018-12-17T11:04:45.863Z,-898.45
2018-12-17T11:05:45.939Z,-898.31
2018-12-17T11:06:46.041Z,-897.23
2018-12-17T11:07:46.091Z,-888.75
2018-12-17T11:08:46.171Z,-893.61
2018-12-17T11:09:46.228Z,-895.11
2018-12-17T11:10:46.366Z,-892.76
2018-12-17T11:11:46.404Z,-902.94
2018-12-17T11:12:46.484Z,-896.74
2018-12-17T11:13:46.537Z,-893.10
2018-12-17T11:14:46.631Z,-891.58
2018-12-17T11:15:46.688Z,-890.78
2018-12-17T11:16:46.795Z,-880.86
2018-12-17T11:17:46.864Z,-887.02
2018-12-17T11:18:46.974Z,-889.83
2018-12-17T11:19:47.044Z,-894.80
2018-12-17T11:20:47.087Z,-894.38
2018-12-17T11:21:47.203Z,-893.02
2018-12-17T11:22:47.273Z,-892.29
2018-12-17T11:23:47.340Z,-895.20
2018-12-17T11:24:47.434Z,-892.27
2018-12-17T11:25:47.492Z,-892.71
2018-12-17T11:26:47.590Z,-897.43
2018-12-17T11:27:47.753Z,-896.64
2018-12-17T11:28:47.720Z,-896.10
2018-12-17T11:29:47.812Z,-897.29
2018-12-17T11:30:47.875Z,-902.57
2018-12-17T11:31:47.949Z,-895.68
2018-12-17T11:32:48.042Z,-898.35
2018-12-17T11:33:48.102Z,-946.49
2018-12-17T11:34:48.188Z,-949.16
2018-12-17T11:35:48.360Z,-905.50
2018-12-17T11:36:48.324Z,-920.03
2018-12-17T11:37:48.439Z,-935.16
2018-12-17T11:38:48.496Z,-937.10
2018-12-17T11:39:48.581Z,-941.17
2018-12-17T11:40:48.656Z,-946.02
2018-12-17T11:41:48.740Z,-895.49
2018-12-17T11:42:48.797Z,-895.70
2018-12-17T11:43:48.914Z,-950.17
2018-12-17T11:44:48.954Z,-954.33
2018-12-17T11:45:49.017Z,-948.55
2018-12-17T11:46:49.113Z,-894.91
2018-12-17T11:47:49.172Z,-947.37
2018-12-17T11:48:49.246Z,-947.99
2018-12-17T11:49:49.355Z,-949.09
2018-12-17T11:50:49.417Z,-896.73
2018-12-17T11:51:49.576Z,-894.46
2018-12-17T11:52:49.566Z,-893.93
2018-12-17T11:53:49.617Z,-897.72
2018-12-17T11:54:49.719Z,-899.62
2018-12-17T11:55:49.795Z,-890.93
2018-12-17T11:56:49.893Z,-893.56
2018-12-17T11:57:49.977Z,-895.43
2018-12-17T11:58:50.033Z,-899.28
2018-12-17T11:59:50.125Z,-894.77
2018-12-17T12:00:53.744Z,-894.72
2018-12-17T12:01:50.272Z,-893.30
2018-12-17T12:02:50.354Z,-897.13
2018-12-17T12:03:50.411Z,-891.82
2018-12-17T12:04:50.739Z,-894.34
2018-12-17T12:05:50.547Z,-904.73
2018-12-17T12:06:50.658Z,-895.55